createdAt,value
2023-01-13T00:01:29.251Z,8.49
2023-01-13T00:03:57.285Z,8.54
2023-01-13T00:06:31.393Z,8.53
2023-01-13T00:08:58.138Z,8.54
2023-01-13T00:11:26.257Z,8.51
2023-01-13T00:13:56.900Z,8.55
2023-01-13T00:16:23.863Z,8.56
2023-01-13T00:18:53.161Z,8.55
2023-01-13T00:21:24.831Z,8.56
2023-01-13T00:23:55.514Z,8.53
2023-01-13T00:26:25.751Z,8.54
2023-01-13T00:29:00.113Z,8.63
2023-01-13T00:31:28.955Z,8.58
2023-01-13T00:34:00.581Z,8.59
2023-01-13T00:36:28.572Z,8.57
2023-01-13T00:38:58.412Z,8.62
2023-01-13T00:41:26.099Z,8.61
2023-01-13T00:43:52.795Z,8.55
2023-01-13T00:46:21.652Z,8.62
2023-01-13T00:48:48.770Z,8.62
2023-01-13T00:51:23.664Z,8.57
2023-01-13T00:53:57.715Z,8.56
2023-01-13T00:56:39.727Z,8.63
2023-01-13T00:59:11.441Z,8.64
2023-01-13T01:01:38.909Z,8.69
2023-01-13T01:04:06.172Z,8.69
2023-01-13T01:06:33.605Z,8.68
2023-01-13T01:09:03.035Z,8.64
2023-01-13T01:11:37.849Z,8.65
2023-01-13T01:14:07.677Z,8.74
2023-01-13T01:16:34.921Z,8.72
2023-01-13T01:19:02.592Z,8.78
2023-01-13T01:21:32.326Z,8.83
2023-01-13T01:24:01.296Z,8.87
2023-01-13T01:26:33.428Z,8.86
2023-01-13T01:29:06.885Z,8.84
2023-01-13T01:31:34.208Z,8.88
2023-01-13T01:34:07.111Z,8.88
2023-01-13T01:36:35.077Z,8.86
2023-01-13T01:39:07.679Z,8.86
2023-01-13T01:41:35.888Z,8.91
2023-01-13T01:44:31.367Z,8.87
2023-01-13T01:47:00.214Z,8.88
2023-01-13T01:49:32.915Z,8.92
2023-01-13T01:52:04.748Z,8.89
2023-01-13T01:55:02.533Z,8.94
2023-01-13T01:57:52.469Z,8.89
2023-01-13T02:00:19.699Z,8.91
2023-01-13T02:02:48.678Z,8.97
2023-01-13T02:05:16.242Z,8.95
2023-01-13T02:07:52.726Z,9.01
2023-01-13T02:10:30.256Z,9.05
2023-01-13T02:13:02.460Z,9.07
2023-01-13T02:15:44.963Z,9.10
2023-01-13T02:18:17.711Z,9.07
2023-01-13T02:21:18.073Z,9.07
2023-01-13T02:24:40.101Z,9.07
2023-01-13T02:27:18.582Z,9.06
2023-01-13T02:30:03.784Z,9.02
2023-01-13T02:32:50.440Z,9.01
2023-01-13T02:35:27.558Z,9.02
2023-01-13T02:37:58.982Z,9.00
2023-01-13T02:40:45.861Z,8.93
2023-01-13T02:43:59.107Z,8.88
2023-01-13T02:46:43.984Z,8.86
2023-01-13T02:49:14.552Z,8.92
2023-01-13T02:51:44.403Z,8.93
2023-01-13T02:54:20.303Z,8.92
2023-01-13T02:56:51.039Z,8.98
2023-01-13T02:59:26.265Z,9.01
2023-01-13T03:01:57.642Z,9.06
2023-01-13T03:04:42.913Z,8.98
2023-01-13T03:07:31.298Z,9.03
2023-01-13T03:10:06.843Z,9.05
2023-01-13T03:13:01.782Z,9.06
2023-01-13T03:16:02.033Z,9.08
2023-01-13T03:19:05.979Z,9.06
2023-01-13T03:21:48.851Z,8.96
2023-01-13T03:24:35.615Z,8.94
2023-01-13T03:27:16.807Z,8.95
2023-01-13T03:29:49.164Z,8.90
2023-01-13T03:32:24.473Z,8.93
2023-01-13T03:34:59.066Z,8.96
2023-01-13T03:37:36.292Z,8.93
2023-01-13T03:40:12.742Z,8.98
2023-01-13T03:43:03.488Z,8.99
2023-01-13T03:45:44.829Z,8.95
2023-01-13T03:48:17.641Z,8.92
2023-01-13T03:50:51.909Z,8.86
2023-01-13T03:53:22.819Z,8.91
2023-01-13T03:55:58.470Z,8.92
2023-01-13T03:58:30.566Z,8.99
2023-01-13T04:01:15.856Z,8.94
2023-01-13T04:03:49.968Z,8.91
2023-01-13T04:06:26.844Z,8.95
2023-01-13T04:09:01.907Z,8.89
2023-01-13T04:11:35.308Z,8.85
2023-01-13T04:14:03.943Z,8.86
2023-01-13T04:16:31.780Z,8.82
2023-01-13T04:19:01.576Z,8.86
2023-01-13T04:21:38.428Z,8.82
2023-01-13T04:24:08.448Z,8.93
2023-01-13T04:26:41.642Z,8.92
2023-01-13T04:29:08.432Z,8.90
2023-01-13T04:31:37.804Z,8.93
2023-01-13T04:34:04.975Z,8.91
2023-01-13T04:36:31.642Z,8.88
2023-01-13T04:38:58.842Z,8.87
2023-01-13T04:41:28.863Z,8.82
2023-01-13T04:43:59.526Z,8.76
2023-01-13T04:46:26.161Z,8.74
2023-01-13T04:48:52.860Z,8.67
2023-01-13T04:51:19.588Z,8.65
2023-01-13T04:53:46.962Z,8.59
2023-01-13T04:56:13.590Z,8.60
2023-01-13T04:58:40.174Z,8.69
2023-01-13T05:01:06.859Z,8.85
2023-01-13T05:03:42.714Z,8.90
2023-01-13T05:06:09.429Z,8.95
2023-01-13T05:08:36.089Z,8.93
2023-01-13T05:11:22.675Z,8.98
2023-01-13T05:14:07.601Z,8.98
2023-01-13T05:16:53.246Z,8.98
2023-01-13T05:19:29.469Z,8.97
2023-01-13T05:22:15.089Z,9.03
2023-01-13T05:25:00.351Z,9.00
2023-01-13T05:27:27.591Z,8.96
2023-01-13T05:30:03.785Z,8.98
2023-01-13T05:32:30.441Z,9.02
2023-01-13T05:34:57.738Z,9.04
2023-01-13T05:37:34.131Z,9.06
2023-01-13T05:40:22.946Z,9.09
2023-01-13T05:43:19.893Z,9.06
2023-01-13T05:46:12.769Z,9.07
2023-01-13T05:48:45.669Z,9.02
2023-01-13T05:51:13.477Z,9.07
2023-01-13T05:53:45.843Z,9.10
2023-01-13T05:56:18.147Z,9.08
2023-01-13T05:58:44.987Z,9.10
2023-01-13T06:01:15.580Z,9.24
2023-01-13T06:03:51.926Z,9.24
2023-01-13T06:06:19.126Z,9.23
2023-01-13T06:08:45.757Z,9.14
2023-01-13T06:11:12.982Z,9.10
2023-01-13T06:13:40.643Z,9.12
2023-01-13T06:16:15.632Z,9.13
2023-01-13T06:18:54.349Z,9.16
2023-01-13T06:21:33.295Z,9.15
2023-01-13T06:24:02.883Z,9.06
2023-01-13T06:26:36.512Z,8.95
2023-01-13T06:29:03.270Z,8.99
2023-01-13T06:31:41.914Z,8.90
2023-01-13T06:34:16.966Z,8.96
2023-01-13T06:36:51.169Z,8.95
2023-01-13T06:39:22.689Z,8.89
2023-01-13T06:42:11.169Z,8.79
2023-01-13T06:44:38.922Z,8.72
2023-01-13T06:47:06.852Z,8.68
2023-01-13T06:49:33.783Z,8.70
2023-01-13T06:52:00.479Z,8.68
2023-01-13T06:54:28.273Z,8.72
2023-01-13T06:57:10.609Z,8.81
2023-01-13T06:59:44.491Z,8.85
2023-01-13T07:02:12.160Z,8.86
2023-01-13T07:04:39.988Z,8.99
2023-01-13T07:07:08.058Z,8.99
2023-01-13T07:09:38.573Z,9.02
2023-01-13T07:12:08.104Z,9.05
2023-01-13T07:15:00.179Z,9.11
2023-01-13T07:17:33.290Z,9.05
2023-01-13T07:20:06.197Z,9.04
2023-01-13T07:22:36.846Z,8.97
2023-01-13T07:25:04.293Z,9.00
2023-01-13T07:27:37.307Z,8.89
2023-01-13T07:30:12.981Z,8.88
2023-01-13T07:32:47.459Z,8.85
2023-01-13T07:35:15.796Z,8.84
2023-01-13T07:37:49.769Z,8.78
2023-01-13T07:40:19.482Z,8.72
2023-01-13T07:43:08.011Z,8.75
2023-01-13T07:45:34.675Z,8.82
2023-01-13T07:48:01.353Z,8.82
2023-01-13T07:50:27.995Z,8.77
2023-01-13T07:52:58.608Z,8.70
2023-01-13T07:55:27.078Z,8.75
2023-01-13T07:57:53.868Z,8.67
2023-01-13T08:00:21.028Z,8.62
2023-01-13T08:02:47.766Z,8.54
2023-01-13T08:05:16.733Z,8.52
2023-01-13T08:07:43.369Z,8.41
2023-01-13T08:10:10.555Z,8.43
2023-01-13T08:12:57.088Z,8.38
2023-01-13T08:15:29.836Z,8.47
2023-01-13T08:17:56.558Z,8.42
2023-01-13T08:20:23.158Z,8.39
2023-01-13T08:22:50.077Z,8.42
2023-01-13T08:25:17.944Z,8.45
2023-01-13T08:27:44.591Z,8.50
2023-01-13T08:30:11.544Z,8.52
2023-01-13T08:32:38.157Z,8.56
2023-01-13T08:35:05.143Z,8.54
2023-01-13T08:37:31.803Z,8.56
2023-01-13T08:40:01.755Z,8.53
2023-01-13T08:42:28.458Z,8.52
2023-01-13T08:44:55.270Z,8.60
2023-01-13T08:47:28.662Z,8.69
2023-01-13T08:49:55.370Z,8.68
2023-01-13T08:52:22.132Z,8.74
2023-01-13T08:54:48.928Z,8.69
2023-01-13T08:57:16.138Z,8.73
2023-01-13T08:59:45.342Z,8.66
2023-01-13T09:02:17.036Z,8.72
2023-01-13T09:04:44.408Z,8.65
2023-01-13T09:07:11.427Z,8.60
2023-01-13T09:09:47.712Z,8.58
2023-01-13T09:12:37.325Z,8.55
2023-01-13T09:15:06.371Z,8.56
2023-01-13T09:17:34.421Z,8.59
2023-01-13T09:20:03.114Z,8.55
2023-01-13T09:22:29.724Z,8.56
2023-01-13T09:24:56.531Z,8.50
2023-01-13T09:27:23.484Z,8.45
2023-01-13T09:29:50.688Z,8.43
2023-01-13T09:32:17.606Z,8.38
2023-01-13T09:35:03.136Z,8.39
2023-01-13T09:37:36.847Z,8.38
2023-01-13T09:40:25.916Z,8.40
2023-01-13T09:43:30.401Z,8.39
2023-01-13T09:46:04.848Z,8.33
2023-01-13T09:48:54.595Z,8.27
2023-01-13T09:51:31.405Z,8.29
2023-01-13T09:54:05.603Z,8.27
2023-01-13T09:56:32.231Z,8.27
2023-01-13T09:58:58.964Z,8.18
2023-01-13T10:01:51.796Z,8.15
2023-01-13T10:04:18.773Z,8.13
2023-01-13T10:06:52.409Z,8.15
2023-01-13T10:09:25.693Z,8.13
2023-01-13T10:12:14.593Z,8.03
2023-01-13T10:14:54.506Z,8.09
2023-01-13T10:17:40.291Z,8.01
2023-01-13T10:20:26.883Z,8.00
2023-01-13T10:23:16.675Z,7.99
2023-01-13T10:26:02.076Z,8.03
2023-01-13T10:28:28.800Z,8.02
2023-01-13T10:30:55.483Z,8.16
2023-01-13T10:33:28.631Z,8.13
2023-01-13T10:36:14.314Z,8.18
2023-01-13T10:38:43.582Z,8.20
2023-01-13T10:41:15.919Z,8.25
2023-01-13T10:43:43.591Z,8.21
2023-01-13T10:46:19.085Z,8.29
2023-01-13T10:49:04.381Z,8.35
2023-01-13T10:51:44.442Z,8.35
2023-01-13T10:54:14.220Z,8.36
2023-01-13T10:56:45.467Z,8.40
2023-01-13T10:59:16.953Z,8.42
2023-01-13T11:01:59.488Z,8.42
2023-01-13T11:04:41.257Z,8.50
2023-01-13T11:07:36.049Z,8.58
2023-01-13T11:10:23.506Z,8.63
2023-01-13T11:13:15.458Z,8.67
2023-01-13T11:16:02.354Z,8.59
2023-01-13T11:18:52.091Z,8.66
2023-01-13T11:21:28.662Z,8.84
2023-01-13T11:24:26.547Z,9.04
2023-01-13T11:27:04.811Z,9.30
2023-01-13T11:30:03.725Z,9.49
2023-01-13T11:32:36.439Z,9.50
2023-01-13T11:35:16.073Z,9.49
2023-01-13T11:37:50.423Z,9.68
2023-01-13T11:40:24.936Z,10.08
2023-01-13T11:43:03.857Z,10.09
2023-01-13T11:45:56.566Z,10.08
2023-01-13T11:48:30.096Z,10.11
2023-01-13T11:51:14.746Z,10.14
2023-01-13T11:53:53.364Z,10.15
2023-01-13T11:56:58.008Z,10.31
2023-01-13T11:59:30.747Z,10.35
2023-01-13T12:02:25.296Z,10.46
2023-01-13T12:05:05.179Z,10.01
2023-01-13T12:07:31.799Z,10.24
2023-01-13T12:10:28.730Z,10.61
2023-01-13T12:13:40.889Z,10.71
2023-01-13T12:16:14.042Z,10.52
2023-01-13T12:19:07.670Z,9.90
2023-01-13T12:21:39.967Z,9.96
2023-01-13T12:24:14.870Z,10.03
2023-01-13T12:26:47.581Z,10.03
2023-01-13T12:29:21.321Z,10.12
2023-01-13T12:31:52.123Z,10.07
2023-01-13T12:34:39.012Z,10.14
2023-01-13T12:37:14.682Z,10.29
2023-01-13T12:40:36.525Z,10.18
2023-01-13T12:43:38.482Z,9.78
2023-01-13T12:46:23.319Z,9.52
2023-01-13T12:48:59.382Z,9.42
2023-01-13T12:51:37.802Z,9.42
2023-01-13T12:54:41.853Z,9.75
2023-01-13T12:57:21.806Z,10.28
2023-01-13T13:00:03.448Z,10.08
2023-01-13T13:02:32.608Z,9.98
2023-01-13T13:05:21.678Z,9.89
2023-01-13T13:07:53.495Z,10.01
2023-01-13T13:10:29.649Z,10.06
2023-01-13T13:13:18.236Z,10.09
2023-01-13T13:15:50.405Z,9.63
2023-01-13T13:18:16.998Z,9.51
2023-01-13T13:21:04.169Z,9.58
2023-01-13T13:23:37.374Z,9.32
2023-01-13T13:26:42.410Z,9.13
2023-01-13T13:29:11.900Z,8.99
2023-01-13T13:31:44.392Z,8.99
2023-01-13T13:34:48.618Z,8.91
2023-01-13T13:38:02.171Z,8.92
2023-01-13T13:40:51.273Z,8.92
2023-01-13T13:43:38.792Z,8.89
2023-01-13T13:46:42.670Z,8.86
2023-01-13T13:49:09.384Z,8.92
2023-01-13T13:51:41.977Z,8.92
2023-01-13T13:54:12.948Z,8.90
2023-01-13T13:56:44.216Z,8.90
2023-01-13T13:59:14.398Z,8.90
2023-01-13T14:01:45.258Z,8.90
2023-01-13T14:04:21.449Z,8.85
2023-01-13T14:06:59.096Z,8.80
2023-01-13T14:09:31.195Z,8.82
2023-01-13T14:12:03.319Z,8.81
2023-01-13T14:14:30.359Z,8.74
2023-01-13T14:16:59.955Z,8.62
2023-01-13T14:19:30.958Z,8.60
2023-01-13T14:22:01.810Z,8.49
2023-01-13T14:24:29.724Z,8.41
2023-01-13T14:27:17.591Z,8.36
2023-01-13T14:29:45.302Z,8.51
2023-01-13T14:32:19.476Z,8.53
2023-01-13T14:34:49.233Z,8.56
2023-01-13T14:37:31.500Z,8.59
2023-01-13T14:39:58.251Z,8.64
2023-01-13T14:42:25.516Z,8.62
2023-01-13T14:44:52.371Z,8.57
2023-01-13T14:47:28.678Z,8.60
2023-01-13T14:50:05.294Z,8.63
2023-01-13T14:52:34.913Z,8.51
2023-01-13T14:55:22.097Z,8.42
2023-01-13T14:57:49.740Z,8.42
2023-01-13T15:00:16.302Z,8.33
2023-01-13T15:02:58.163Z,8.22
2023-01-13T15:05:27.650Z,8.18
2023-01-13T15:08:12.587Z,8.11
2023-01-13T15:10:49.560Z,8.08
2023-01-13T15:13:41.188Z,8.03
2023-01-13T15:16:25.435Z,7.93
2023-01-13T15:18:53.185Z,7.96
2023-01-13T15:21:20.097Z,7.94
2023-01-13T15:23:50.071Z,7.91
2023-01-13T15:26:26.221Z,7.92
2023-01-13T15:28:58.143Z,7.89
2023-01-13T15:31:25.808Z,7.81
2023-01-13T15:34:00.486Z,7.81
2023-01-13T15:36:32.761Z,7.75
2023-01-13T15:39:04.735Z,7.73
2023-01-13T15:41:49.952Z,7.73
2023-01-13T15:44:35.637Z,7.73
2023-01-13T15:47:05.859Z,7.69
2023-01-13T15:49:46.697Z,7.57
2023-01-13T15:52:25.553Z,7.47
2023-01-13T15:54:53.217Z,7.34
2023-01-13T15:57:23.762Z,7.31
2023-01-13T15:59:52.431Z,7.34
2023-01-13T16:02:19.416Z,7.31
2023-01-13T16:04:46.524Z,7.22
2023-01-13T16:07:17.442Z,7.16
2023-01-13T16:09:48.246Z,7.13
2023-01-13T16:12:17.933Z,7.09
2023-01-13T16:14:44.579Z,7.08
2023-01-13T16:17:20.950Z,7.04
2023-01-13T16:19:47.886Z,7.19
2023-01-13T16:22:16.307Z,7.28
2023-01-13T16:24:43.354Z,7.28
2023-01-13T16:27:31.065Z,7.39
2023-01-13T16:30:04.256Z,7.48
2023-01-13T16:32:40.897Z,7.55
2023-01-13T16:35:08.111Z,7.62
2023-01-13T16:37:34.734Z,7.62
2023-01-13T16:40:01.466Z,7.61
2023-01-13T16:42:37.863Z,7.54
2023-01-13T16:45:08.437Z,7.50
2023-01-13T16:47:35.076Z,7.50
2023-01-13T16:50:02.415Z,7.43
2023-01-13T16:52:31.898Z,7.37
2023-01-13T16:55:00.854Z,7.29
2023-01-13T16:57:27.493Z,7.28
2023-01-13T16:59:57.133Z,7.23
2023-01-13T17:02:25.251Z,7.20
2023-01-13T17:04:54.847Z,7.06
2023-01-13T17:07:21.537Z,7.06
2023-01-13T17:09:48.215Z,7.00
2023-01-13T17:12:30.019Z,6.92
2023-01-13T17:14:56.638Z,6.95
2023-01-13T17:17:25.854Z,6.99
2023-01-13T17:19:53.400Z,6.97
2023-01-13T17:22:23.790Z,6.99
2023-01-13T17:24:50.477Z,7.02
2023-01-13T17:27:21.664Z,7.06
2023-01-13T17:29:48.437Z,7.10
2023-01-13T17:32:17.528Z,7.12
2023-01-13T17:34:45.409Z,7.16
2023-01-13T17:37:15.251Z,7.25
2023-01-13T17:39:48.321Z,7.30
2023-01-13T17:42:15.783Z,7.26
2023-01-13T17:44:42.603Z,7.20
2023-01-13T17:47:09.916Z,7.23
2023-01-13T17:49:36.634Z,7.24
2023-01-13T17:52:03.476Z,7.25
2023-01-13T17:54:30.142Z,7.28
2023-01-13T17:56:56.921Z,7.21
2023-01-13T17:59:24.476Z,7.30
2023-01-13T18:01:51.580Z,7.30
2023-01-13T18:04:21.271Z,7.32
2023-01-13T18:06:48.734Z,7.36
2023-01-13T18:09:18.371Z,7.37
2023-01-13T18:11:48.647Z,7.35
2023-01-13T18:14:15.442Z,7.26
2023-01-13T18:16:42.217Z,7.29
2023-01-13T18:19:29.112Z,7.35
2023-01-13T18:22:17.735Z,7.32
2023-01-13T18:25:02.755Z,7.30
2023-01-13T18:27:35.272Z,7.32
2023-01-13T18:30:03.437Z,7.25
2023-01-13T18:32:36.444Z,7.32
2023-01-13T18:35:07.314Z,7.30
2023-01-13T18:37:42.050Z,7.26
2023-01-13T18:40:11.780Z,7.21
2023-01-13T18:42:58.348Z,7.21
2023-01-13T18:45:31.488Z,7.16
2023-01-13T18:48:03.571Z,7.12
2023-01-13T18:50:34.822Z,7.12
2023-01-13T18:53:05.505Z,7.11
2023-01-13T18:55:32.360Z,7.14
2023-01-13T18:57:59.818Z,7.19
2023-01-13T19:00:27.556Z,7.25
2023-01-13T19:05:34.297Z,7.32
2023-01-13T19:08:06.682Z,7.31
2023-01-13T19:10:37.489Z,7.36
2023-01-13T19:13:16.170Z,7.38
2023-01-13T19:15:45.415Z,7.39
2023-01-13T19:18:14.379Z,7.42
2023-01-13T19:20:41.092Z,7.45
2023-01-13T19:23:08.408Z,7.47
2023-01-13T19:25:36.069Z,7.57
2023-01-13T19:28:02.988Z,7.57
2023-01-13T19:30:29.466Z,7.57
2023-01-13T19:32:56.585Z,7.54
2023-01-13T19:35:23.648Z,7.52
2023-01-13T19:37:54.098Z,7.55
2023-01-13T19:40:20.893Z,7.56
2023-01-13T19:43:06.222Z,7.49
2023-01-13T19:45:35.309Z,7.45
2023-01-13T19:48:02.608Z,7.44
2023-01-13T19:50:36.242Z,7.47
2023-01-13T19:53:03.270Z,7.47
2023-01-13T19:55:31.868Z,7.41
2023-01-13T19:57:58.949Z,7.32
2023-01-13T20:00:25.667Z,7.25
2023-01-13T20:02:56.865Z,7.19
2023-01-13T20:05:26.028Z,7.08
2023-01-13T20:07:52.955Z,6.96
2023-01-13T20:10:21.920Z,6.94
2023-01-13T20:12:48.919Z,6.90
2023-01-13T20:15:15.887Z,6.83
2023-01-13T20:17:42.648Z,6.79
2023-01-13T20:20:17.690Z,6.82
2023-01-13T20:22:44.603Z,6.84
2023-01-13T20:25:13.354Z,6.72
2023-01-13T20:27:42.341Z,6.68
2023-01-13T20:30:13.542Z,6.74
2023-01-13T20:32:44.580Z,6.80
2023-01-13T20:35:11.880Z,6.89
2023-01-13T20:37:46.015Z,6.98
2023-01-13T20:40:18.026Z,7.10
2023-01-13T20:42:45.382Z,7.09
2023-01-13T20:45:20.971Z,7.11
2023-01-13T20:47:47.788Z,7.08
2023-01-13T20:50:15.618Z,7.15
2023-01-13T20:52:42.661Z,7.20
2023-01-13T20:55:10.291Z,7.18
2023-01-13T20:57:37.050Z,7.16
2023-01-13T21:00:05.359Z,7.06
2023-01-13T21:02:32.181Z,6.96
2023-01-13T21:04:58.938Z,7.06
2023-01-13T21:07:25.804Z,7.07
2023-01-13T21:09:52.698Z,7.11
2023-01-13T21:12:37.959Z,7.19
2023-01-13T21:15:20.548Z,7.09
2023-01-13T21:18:07.842Z,7.02
2023-01-13T21:20:36.212Z,6.91
2023-01-13T21:23:08.719Z,6.78
2023-01-13T21:25:37.314Z,6.75
2023-01-13T21:28:08.472Z,6.79
2023-01-13T21:30:36.675Z,6.74
2023-01-13T21:33:04.351Z,6.74
2023-01-13T21:35:31.090Z,6.72
2023-01-13T21:37:57.717Z,6.65
2023-01-13T21:40:24.368Z,6.64
2023-01-13T21:43:12.482Z,6.53
2023-01-13T21:46:00.721Z,6.50
2023-01-13T21:48:27.684Z,6.50
2023-01-13T21:50:56.888Z,6.54
2023-01-13T21:53:23.523Z,6.61
2023-01-13T21:55:52.458Z,6.71
2023-01-13T21:58:19.109Z,6.76
2023-01-13T22:00:46.325Z,6.82
2023-01-13T22:03:15.937Z,6.94
2023-01-13T22:05:42.584Z,6.99
2023-01-13T22:08:12.948Z,6.99
2023-01-13T22:10:57.468Z,6.95
2023-01-13T22:13:43.073Z,6.93
2023-01-13T22:16:09.939Z,6.90
2023-01-13T22:18:36.711Z,6.89
2023-01-13T22:21:06.785Z,6.85
2023-01-13T22:23:33.472Z,6.84
2023-01-13T22:26:04.852Z,6.87
2023-01-13T22:28:40.465Z,6.80
2023-01-13T22:31:18.123Z,6.73
2023-01-13T22:33:48.067Z,6.74
2023-01-13T22:36:15.901Z,6.78
2023-01-13T22:38:42.645Z,6.79
2023-01-13T22:41:10.386Z,6.81
2023-01-13T22:43:38.221Z,6.77
2023-01-13T22:46:13.774Z,6.70
2023-01-13T22:48:41.493Z,6.70
2023-01-13T22:51:16.993Z,6.69
2023-01-13T22:53:43.838Z,6.66
2023-01-13T22:56:16.657Z,6.61
2023-01-13T22:58:44.351Z,6.58
2023-01-13T23:01:16.621Z,6.55
2023-01-13T23:03:46.441Z,6.58
2023-01-13T23:06:18.264Z,6.58
2023-01-13T23:08:45.769Z,6.56
2023-01-13T23:11:15.024Z,6.49
2023-01-13T23:13:43.415Z,6.49
2023-01-13T23:16:21.278Z,6.57
2023-01-13T23:18:48.739Z,6.62
2023-01-13T23:21:18.402Z,6.62
2023-01-13T23:23:47.208Z,6.65
2023-01-13T23:26:14.193Z,6.71
2023-01-13T23:28:40.854Z,6.67
2023-01-13T23:31:14.679Z,6.68
2023-01-13T23:33:43.513Z,6.63
2023-01-13T23:36:31.929Z,6.47
2023-01-13T23:38:59.500Z,6.46
2023-01-13T23:41:26.676Z,6.47
2023-01-13T23:43:58.627Z,6.39
2023-01-13T23:46:33.103Z,6.32
2023-01-13T23:49:00.882Z,6.25
2023-01-13T23:51:30.064Z,6.30
2023-01-13T23:54:06.611Z,6.35
2023-01-13T23:56:34.082Z,6.48
2023-01-13T23:59:00.716Z,6.51
